MATARÓ (Maresme)





Hora UTC 22:00
Temperatura 23.7 ºC
Humedad 70.9 %
Presión 1014.8 hPa
Pluja 0.0 mm
Velocidad viento 0.0 km/h
Dirección viento ENE
Radiación solar 0.1 W/m²

Datos diarios 2024-07-24



Hora UTC (invierno +1h; verano +2h)
Temperatura (ºC) Humedad (%) Presión (hPa) Velocidad viento (km/h) Precipitación (mm) Radiación solar (W/m²)
Hora UTC Aire Humedad Presión Vel. Dir. Vel. Max Dir. Intent. máx 5 min. Rad. Sol.
00:05 24.8 66.9 1018.4 4.0 NNE 4.0 NNE 0.0 0.1
00:10 24.8 66.7 1018.4 4.4 NNE 4.9 N 0.0 0.1
00:15 24.7 66.8 1018.3 3.7 N 4.9 NNE 0.0 0.1
00:20 24.7 66.2 1018.3 3.9 NE 4.6 NE 0.0 0.1
00:25 24.9 64.9 1018.2 4.1 NNE 5.6 N 0.0 0.1
00:30 25.0 65.2 1018.2 4.2 NNE 6.4 N 0.0 0.1
00:35 25.1 66.1 1018.1 3.3 NNE 4.2 NNE 0.0 0.1
00:40 25.0 66.6 1018.1 2.5 NNW 3.9 N 0.0 0.1
00:45 25.0 67.5 1018.1 2.4 NNW 3.9 NNW 0.0 0.1
00:50 24.9 69.0 1018.1 3.7 NNW 4.6 NNW 0.0 0.1
00:55 24.8 69.4 1018.1 4.2 NNW 5.3 NNW 0.0 0.1
01:00 24.8 69.8 1018.0 3.9 NNW 4.9 NW 0.0 0.1
01:05 24.8 69.9 1018.0 3.0 NNW 3.9 NNW 0.0 0.1
01:10 24.9 69.7 1018.0 3.1 NNW 4.2 NNW 0.0 0.1
01:15 24.9 69.4 1018.0 2.7 NNW 3.9 NNW 0.0 0.1
01:20 24.9 69.4 1018.0 1.0 NNW 2.8 N 0.0 0.1
01:25 24.9 71.0 1018.0 0.0 NNE 0.0 N 0.0 0.1
01:30 24.9 71.5 1018.0 0.0 NNE 0.0 N 0.0 0.1
01:35 24.8 71.6 1017.9 0.0 NNE 0.0 N 0.0 0.1
01:40 24.6 70.7 1017.9 0.3 NNE 1.4 N 0.0 0.1
01:45 24.5 67.8 1017.9 1.2 N 3.2 N 0.0 0.1
01:50 24.7 68.5 1017.9 0.7 NNE 2.5 NNE 0.0 0.1
01:55 24.7 70.8 1017.9 1.3 ENE 2.5 NE 0.0 0.1
02:00 24.7 70.3 1017.9 0.4 ENE 1.8 ENE 0.0 0.1
02:05 24.5 66.7 1017.8 2.2 N 4.9 NNW 0.0 0.1
02:10 24.4 63.2 1017.7 4.5 NNW 6.4 NNW 0.0 0.1
02:15 24.4 63.4 1017.7 4.6 NNW 5.6 NNW 0.0 0.1
02:20 24.5 62.8 1017.6 4.1 NNW 5.3 NNW 0.0 0.1
02:25 24.7 62.7 1017.6 4.6 NNW 5.6 NNW 0.0 0.1
02:30 24.7 62.9 1017.6 5.4 NNW 6.7 NNW 0.0 0.1
02:35 24.7 62.7 1017.6 3.6 NNW 4.9 NNW 0.0 0.1
02:40 24.9 61.5 1017.6 3.6 N 5.3 NNW 0.0 0.1
02:45 24.9 61.2 1017.5 5.4 NNW 6.7 NNW 0.0 0.1
02:50 24.9 61.0 1017.5 4.3 N 6.0 N 0.0 0.1
02:55 24.9 60.4 1017.4 3.9 N 6.4 NNW 0.0 0.1
03:00 24.8 60.7 1017.4 3.3 NE 4.2 NE 0.0 0.1
03:05 24.6 61.6 1017.5 4.7 ENE 6.0 ENE 0.0 0.1
03:10 24.6 61.8 1017.5 4.0 ENE 6.0 ENE 0.0 0.1
03:15 24.6 61.9 1017.5 4.0 ENE 5.6 E 0.0 0.1
03:20 24.5 62.2 1017.5 3.2 ENE 4.2 ENE 0.0 0.1
03:25 24.5 62.3 1017.5 4.2 ENE 5.3 ENE 0.0 0.1
03:30 24.4 63.3 1017.5 3.3 ENE 4.9 ENE 0.0 0.1
03:35 24.3 64.0 1017.6 2.5 E 4.9 ESE 0.0 0.1
03:40 24.2 65.2 1017.6 4.7 E 6.0 E 0.0 0.1
03:45 24.2 65.7 1017.6 3.0 NE 4.2 NNE 0.0 0.1
03:50 24.2 67.3 1017.6 3.4 NNE 5.3 NE 0.0 0.1
03:55 24.2 68.8 1017.6 3.2 NNE 5.6 NNE 0.0 0.1
04:00 24.0 70.7 1017.6 6.1 N 7.4 0.0 0.1
04:05 23.8 72.2 1017.6 5.4 N 6.4 N 0.0 0.1
04:10 23.7 73.0 1017.6 5.2 N 6.4 N 0.0 0.1
04:15 23.8 70.2 1017.6 5.2 N 7.1 N 0.0 0.1
04:20 23.9 68.3 1017.6 4.7 N 6.4 N 0.0 0.3
04:25 24.0 67.8 1017.6 4.3 N 6.0 0.0 0.9
04:30 24.2 67.1 1017.6 4.6 N 5.6 N 0.0 1.8
04:35 24.5 65.8 1017.6 3.0 N 6.0 N 0.0 3.0
04:40 24.6 65.4 1017.6 1.2 NNE 2.5 NE 0.0 4.6
04:45 24.7 65.1 1017.6 2.0 ENE 2.8 NE 0.0 6.7
04:50 24.7 65.4 1017.6 2.7 NE 4.9 NE 0.0 9.1
04:55 24.8 64.8 1017.6 3.4 NE 5.3 NE 0.0 11.6
05:00 24.9 64.8 1017.6 2.4 ENE 4.2 NE 0.0 14.2
05:05 24.6 67.0 1017.6 0.5 ESE 2.1 E 0.0 16.2
05:10 24.1 69.0 1017.5 0.0 NNE 0.0 NW 0.0 18.6
05:15 24.0 68.8 1017.6 0.0 NNE 0.0 SSE 0.0 20.8
05:20 24.1 68.2 1017.6 0.0 NNE 0.0 E 0.0 22.9
05:25 24.2 67.6 1017.6 1.4 NNW 4.2 NNW 0.0 24.9
05:30 24.3 67.7 1017.5 4.1 N 4.6 N 0.0 27.0
05:35 24.4 67.4 1017.5 3.8 N 4.6 0.0 29.8
05:40 24.5 66.9 1017.6 1.6 NNE 3.2 N 0.0 97.7
05:45 24.7 67.8 1017.6 2.0 S 4.2 SSE 0.0 128.7
05:50 24.8 67.6 1017.7 3.1 SSE 4.6 S 0.0 141.3
05:55 25.1 66.9 1017.7 3.0 SSE 4.6 S 0.0 154.3
06:00 25.4 66.7 1017.7 2.0 ESE 4.9 SSE 0.0 166.0
06:05 25.7 66.3 1017.8 0.1 SE 1.8 SE 0.0 178.1
06:10 26.0 65.1 1017.8 0.4 ESE 1.8 SE 0.0 190.6
06:15 26.3 63.4 1017.8 0.1 SE 1.4 SSE 0.0 203.4
06:20 26.6 63.2 1017.9 0.0 ESE 1.1 ESE 0.0 216.7
06:25 26.8 61.8 1017.9 0.1 SE 1.4 SE 0.0 229.9
06:30 27.2 61.3 1017.9 0.0 NNE 0.0 ENE 0.0 243.2
06:35 27.2 60.3 1017.9 0.0 SSE 1.1 SSE 0.0 256.6
06:40 27.6 58.6 1017.9 0.1 SSE 1.4 SSE 0.0 270.7
06:45 28.0 56.6 1017.9 2.3 SSE 6.0 ESE 0.0 284.4
06:50 28.2 55.9 1017.9 3.7 ESE 6.4 ESE 0.0 298.1
06:55 28.4 54.4 1017.9 4.4 SE 7.1 SSE 0.0 311.8
07:00 28.5 54.3 1017.9 4.0 SE 6.7 ESE 0.0 325.6
07:05 28.6 53.5 1017.9 4.3 SSE 7.1 SE 0.0 339.2
07:10 28.7 53.4 1017.9 5.4 SE 8.1 E 0.0 352.8
07:15 28.8 53.4 1017.9 6.1 SE 9.2 ESE 0.0 366.1
07:20 28.8 52.9 1017.9 6.1 SE 9.9 ESE 0.0 379.2
07:25 28.8 53.0 1017.9 5.1 SE 12.0 SE 0.0 393.1
07:30 28.9 53.3 1017.9 7.3 SE 10.6 SE 0.0 405.7
07:35 28.7 53.2 1017.9 5.3 SE 8.5 S 0.0 418.7
07:40 28.6 53.8 1017.9 7.3 S 11.3 SSW 0.0 431.5
07:45 28.5 55.0 1017.9 5.1 S 9.5 SE 0.0 444.3
07:50 28.7 54.3 1017.9 4.8 SE 8.1 S 0.0 457.6
07:55 28.8 53.1 1017.9 5.2 S 10.6 SSE 0.0 471.8
08:00 28.8 53.3 1017.9 6.0 ESE 9.9 ESE 0.0 484.4
08:05 28.9 55.2 1017.9 7.7 SSE 12.7 SE 0.0 496.9
08:10 28.9 53.1 1017.9 6.1 SSE 11.3 SE 0.0 509.9
08:15 28.9 53.9 1017.9 8.0 SSE 11.3 SSE 0.0 521.8
08:20 28.8 54.1 1017.8 8.3 SSE 12.4 SSE 0.0 534.2
08:25 28.9 54.1 1017.8 8.0 SSE 12.4 SE 0.0 546.0
08:30 28.9 54.1 1017.8 9.0 SSE 12.0 SE 0.0 556.7
08:35 28.8 55.4 1017.8 7.8 SE 12.4 SSE 0.0 568.6
08:40 29.0 54.5 1017.8 7.4 SSE 14.5 S 0.0 579.7
08:45 28.8 54.5 1017.9 7.5 SE 12.4 SE 0.0 590.5
08:50 28.9 58.2 1017.8 9.3 SSE 13.8 SE 0.0 601.0
08:55 28.9 57.8 1017.8 8.9 SSE 13.8 SSE 0.0 610.9
09:00 28.5 58.7 1017.8 8.5 SSE 13.4 SSE 0.0 620.8
09:05 28.7 59.2 1017.8 8.8 SE 14.1 SE 0.0 632.9
09:10 28.7 56.4 1017.8 8.9 SE 13.4 SE 0.0 642.1
09:15 28.6 56.7 1017.7 8.8 SSE 15.2 S 0.0 652.4
09:20 28.7 57.1 1017.7 9.7 SE 14.5 ESE 0.0 660.8
09:25 28.7 57.1 1017.7 10.6 SSE 16.9 SE 0.0 662.0
09:30 28.6 57.4 1017.7 9.5 SSE 14.1 SSE 0.0 641.1
09:35 28.7 55.3 1017.7 10.7 SSE 14.8 SSE 0.0 691.2
09:40 28.5 56.9 1017.7 8.3 SSE 14.8 S 0.0 699.8
09:45 28.7 57.4 1017.7 8.5 SSE 15.2 SSE 0.0 707.5
09:50 29.0 59.6 1017.7 9.6 SSE 17.3 SSE 0.0 714.3
09:55 28.7 62.5 1017.7 10.0 SE 15.2 SE 0.0 726.3
10:00 28.5 65.6 1017.6 10.2 SE 15.2 SE 0.0 731.0
10:05 28.4 66.6 1017.6 10.4 SE 18.0 SE 0.0 666.8
10:10 28.4 70.4 1017.6 9.3 SE 15.5 SE 0.0 608.9
10:15 28.2 70.6 1017.6 11.2 SE 18.4 SSE 0.0 743.3
10:20 28.4 68.3 1017.6 9.6 SSE 21.2 S 0.0 758.5
10:25 28.7 65.3 1017.6 9.7 SSE 15.2 SSE 0.0 764.3
10:30 28.6 63.9 1017.6 9.5 SSE 14.5 SSW 0.0 768.5
10:35 28.2 64.8 1017.5 10.9 S 16.6 S 0.0 777.8
10:40 28.1 65.0 1017.5 11.1 SE 18.0 ESE 0.0 777.6
10:45 28.0 64.9 1017.5 10.3 SE 16.2 SE 0.0 785.2
10:50 28.5 61.9 1017.5 9.9 SSE 15.9 SSE 0.0 788.5
10:55 28.4 61.7 1017.4 10.1 SSE 18.0 SE 0.0 793.5
11:00 28.2 61.9 1017.4 9.8 S 17.3 SSW 0.0 802.0
11:05 28.2 60.8 1017.4 9.1 SSE 15.5 SE 0.0 809.0
11:10 28.5 58.0 1017.3 7.5 SSW 15.5 S 0.0 808.0
11:15 28.9 57.7 1017.3 8.8 SSE 15.9 SSE 0.0 811.0
11:20 28.7 57.7 1017.3 11.0 SSE 17.6 SSE 0.0 812.0
11:25 28.7 61.2 1017.3 9.0 S 15.9 S 0.0 815.0
11:30 28.4 63.7 1017.2 10.7 S 17.6 SSE 0.0 818.0
11:35 28.8 63.1 1017.2 5.5 SSW 12.0 SSW 0.0 821.0
11:40 29.0 62.0 1017.2 8.9 SSW 15.2 SW 0.0 824.0
11:45 28.9 61.6 1017.1 6.6 S 14.5 S 0.0 822.0
11:50 29.1 61.2 1016.9 7.6 S 16.9 S 0.0 826.0
11:55 29.0 59.5 1016.9 11.0 SSE 16.6 SE 0.0 829.0
12:00 28.8 59.9 1016.9 11.3 S 20.8 SSW 0.0 830.0
12:05 28.7 60.1 1017.0 9.8 S 16.6 SSW 0.0 829.0
12:10 28.8 62.1 1017.0 11.7 SSE 18.4 SSE 0.0 826.0
12:15 28.5 61.9 1016.9 13.1 SSE 20.1 SSE 0.0 820.0
12:20 28.1 69.3 1016.8 14.0 SSE 22.2 S 0.0 816.0
12:25 28.0 68.5 1016.8 12.1 SSE 16.9 S 0.0 813.0
12:30 28.1 65.7 1016.8 12.1 S 21.5 S 0.0 815.0
12:35 28.3 66.0 1016.8 12.0 S 22.9 SSE 0.0 810.0
12:40 28.1 66.4 1016.7 13.5 S 21.2 S 0.0 806.0
12:45 28.2 69.3 1016.7 13.2 S 20.1 SSE 0.0 816.0
12:50 28.2 70.1 1016.6 11.1 S 17.3 SW 0.0 842.0
12:55 28.1 71.7 1016.6 9.9 S 18.7 SSW 0.0 760.4
13:00 28.1 71.5 1016.5 11.6 S 19.1 S 0.0 659.1
13:05 28.0 71.9 1016.5 12.7 S 20.8 SSE 0.0 816.0
13:10 28.0 71.7 1016.4 15.1 SSE 24.7 S 0.0 790.2
13:15 27.9 72.2 1016.4 12.2 S 23.6 SSW 0.0 779.7
13:20 28.1 71.0 1016.3 13.6 S 21.5 SSW 0.0 800.0
13:25 28.0 70.7 1016.3 14.1 S 21.9 S 0.0 762.2
13:30 28.0 70.5 1016.4 12.6 SSE 21.9 SSE 0.0 798.9
13:35 28.2 69.1 1016.4 11.8 SSE 20.8 SSE 0.0 711.9
13:40 28.1 69.0 1016.3 14.3 SSE 27.2 SSE 0.0 505.0
13:45 27.9 71.2 1016.3 12.2 S 20.1 S 0.0 844.0
13:50 27.8 71.0 1016.3 13.2 S 24.0 SE 0.0 730.6
13:55 28.1 71.3 1016.3 9.8 S 19.8 S 0.0 674.0
14:00 28.2 70.5 1016.3 11.6 SSW 20.5 SSW 0.0 741.8
14:05 28.0 69.1 1016.2 11.6 SSW 23.6 SSE 0.0 668.2
14:10 27.9 70.1 1016.1 12.0 SSW 21.9 SSW 0.0 720.2
14:15 28.0 69.6 1016.1 13.2 SSE 23.6 SSE 0.0 729.3
14:20 28.0 70.4 1016.0 9.7 S 16.2 WSW 0.0 683.1
14:25 28.2 70.1 1016.0 9.9 SSE 21.2 SSE 0.0 700.2
14:30 28.2 68.9 1015.9 13.9 S 19.8 SW 0.0 674.7
14:35 27.9 67.5 1015.8 10.9 S 17.3 S 0.0 658.8
14:40 27.8 69.9 1015.8 12.4 SSE 19.1 SSE 0.0 648.4
14:45 27.9 67.3 1015.8 10.4 SSW 19.8 SW 0.0 643.9
14:50 28.0 68.9 1015.8 11.1 S 22.6 S 0.0 631.3
14:55 28.1 67.8 1015.8 11.0 S 20.5 SSE 0.0 618.8
15:00 28.0 67.4 1015.7 13.4 SSE 20.1 S 0.0 606.3
15:05 28.1 65.6 1015.6 11.8 SSE 20.5 SE 0.0 596.8
15:10 28.1 63.5 1015.6 10.5 S 18.4 S 0.0 585.2
15:15 28.1 64.4 1015.5 12.5 S 20.5 SW 0.0 572.9
15:20 28.1 63.3 1015.5 10.0 SSW 20.1 SW 0.0 562.1
15:25 28.2 64.0 1015.5 12.8 SE 22.9 SE 0.0 550.6
15:30 27.8 64.8 1015.3 15.7 SE 27.2 SE 0.0 537.9
15:35 27.7 65.2 1015.3 11.5 SE 18.4 SE 0.0 525.6
15:40 27.8 64.7 1015.3 12.3 SSE 18.0 SE 0.0 513.7
15:45 27.8 65.1 1015.3 11.5 SSE 19.1 SSE 0.0 502.4
15:50 27.8 64.3 1015.2 11.5 SSE 22.2 SSE 0.0 489.3
15:55 27.7 64.9 1015.2 9.3 SSE 17.3 SSE 0.0 476.8
16:00 27.9 65.2 1015.1 8.7 SSE 17.6 SE 0.0 464.2
16:05 28.1 63.4 1015.0 10.6 SSE 19.4 S 0.0 451.1
16:10 27.9 63.5 1015.0 9.7 SSE 17.3 SE 0.0 437.2
16:15 28.0 63.1 1015.0 10.0 SE 17.6 SE 0.0 423.0
16:20 27.9 62.9 1015.0 8.0 SSE 16.2 SE 0.0 409.5
16:25 27.9 62.1 1015.0 9.2 SSE 15.2 SE 0.0 397.3
16:30 28.0 61.8 1014.9 8.9 S 16.9 SW 0.0 383.8
16:35 28.0 61.1 1014.9 9.0 SSE 15.2 SSE 0.0 370.2
16:40 27.8 61.5 1014.8 8.9 SSE 16.6 S 0.0 357.3
16:45 27.9 60.8 1014.7 6.8 S 19.1 SSW 0.0 342.4
16:50 28.2 60.8 1014.8 7.9 S 16.6 S 0.0 330.0
16:55 28.0 59.5 1014.8 9.6 SSE 15.2 SSE 0.0 318.0
17:00 27.9 56.8 1014.8 9.5 SW 17.6 WSW 0.0 303.9
17:05 28.0 57.6 1014.8 8.1 SSE 14.5 SSE 0.0 288.7
17:10 27.8 59.2 1014.8 7.8 SSE 13.4 S 0.0 274.1
17:15 27.6 60.5 1014.8 10.1 SSE 17.3 SSE 0.0 260.9
17:20 27.5 61.6 1014.9 11.0 S 18.4 SSE 0.0 247.6
17:25 27.4 61.9 1014.9 5.9 S 13.8 S 0.0 235.5
17:30 27.5 62.2 1014.8 8.0 S 14.1 S 0.0 219.8
17:35 27.5 62.1 1014.7 8.2 S 12.7 SSW 0.0 206.3
17:40 27.4 60.8 1014.7 8.2 WSW 17.6 SW 0.0 194.1
17:45 27.5 61.3 1014.7 6.7 SSW 16.2 SSW 0.0 181.0
17:50 27.4 62.2 1014.7 9.1 SSW 15.9 SW 0.0 168.0
17:55 27.3 62.6 1014.7 9.2 S 20.8 S 0.0 149.1
18:00 27.0 64.3 1014.7 7.5 SSW 15.9 WSW 0.0 142.5
18:05 27.0 64.8 1014.7 6.3 SSW 11.6 WSW 0.0 128.9
18:10 27.0 65.2 1014.7 6.7 SSW 12.4 SSW 0.0 116.0
18:15 26.9 65.3 1014.7 7.7 SW 12.7 SSW 0.0 102.0
18:20 26.9 63.9 1014.7 5.4 SW 11.3 WSW 0.0 89.6
18:25 27.0 62.9 1014.7 10.0 SW 15.2 SW 0.0 77.7
18:30 26.7 64.1 1014.7 6.0 WSW 13.1 WSW 0.0 38.6
18:35 26.7 64.8 1014.8 7.9 SW 11.6 SSW 0.0 26.7
18:40 26.5 65.9 1014.8 8.4 SW 15.2 SW 0.0 23.6
18:45 26.4 67.1 1014.8 7.6 SSW 12.4 S 0.0 20.5
18:50 26.4 67.4 1014.8 5.7 SSW 11.6 SSW 0.0 17.5
18:55 26.3 67.5 1014.8 6.6 SW 12.0 SW 0.0 14.4
19:00 26.3 67.7 1014.8 6.0 SSW 11.3 SSW 0.0 11.5
19:05 26.2 68.2 1014.8 5.1 SW 10.2 S 0.0 8.6
19:10 26.2 68.2 1014.8 5.4 WSW 10.2 WSW 0.0 6.0
19:15 26.1 68.6 1014.8 5.1 SSW 11.6 SW 0.0 4.0
19:20 26.0 69.0 1014.9 3.4 SW 10.9 SSW 0.0 2.6
19:25 25.9 69.5 1014.9 3.2 SW 7.1 SW 0.0 1.6
19:30 25.9 69.8 1014.8 2.9 SW 7.8 SSW 0.0 0.9
19:35 25.8 70.2 1014.8 1.3 WSW 8.1 SW 0.0 0.4
19:40 25.6 70.6 1014.8 1.3 NW 4.9 NW 0.0 0.2
19:45 25.5 71.1 1014.8 1.6 NW 3.5 NNW 0.0 0.1
19:50 25.4 71.9 1014.9 3.7 WSW 7.1 SSW 0.0 0.1
19:55 25.5 72.2 1014.9 4.9 SSW 9.2 SSW 0.0 0.1
20:00 25.5 72.3 1014.9 3.9 SW 7.4 SW 0.0 0.1
20:05 25.4 72.5 1014.9 3.2 NW 4.6 W 0.0 0.1
20:10 25.2 72.8 1015.0 2.5 WNW 4.9 NW 0.0 0.1
20:15 25.1 73.1 1015.0 2.5 WNW 4.6 WNW 0.0 0.1
20:20 25.0 73.4 1015.0 3.4 WNW 5.3 WNW 0.0 0.1
20:25 24.9 73.9 1015.0 3.4 NW 6.0 WNW 0.0 0.1
20:30 24.8 74.1 1015.0 3.9 NW 6.0 NW 0.0 0.1
20:35 24.8 74.2 1015.0 4.9 NW 6.4 WNW 0.0 0.1
20:40 24.7 74.1 1014.9 3.4 NW 5.6 W 0.0 0.1
20:45 24.7 74.0 1014.9 3.6 NW 7.4 W 0.0 0.1
20:50 24.7 74.0 1015.0 3.0 NW 4.6 NNW 0.0 0.1
20:55 24.6 74.1 1015.0 3.1 NW 3.9 WNW 0.0 0.1
21:00 24.6 74.3 1015.0 3.3 NNW 4.2 NNW 0.0 0.1
21:05 24.5 74.2 1014.9 3.2 NW 3.9 NW 0.0 0.1
21:10 24.5 74.4 1014.9 2.6 NW 3.5 NW 0.0 0.1
21:15 24.4 74.6 1014.9 1.9 NNW 2.8 NNW 0.0 0.1
21:20 24.3 74.9 1014.8 2.2 NNW 3.5 NNW 0.0 0.1
21:25 24.2 74.9 1014.8 2.3 NW 3.2 NNW 0.0 0.1
21:30 24.0 75.1 1014.8 3.4 NW 5.3 NW 0.0 0.1
21:35 23.8 75.5 1014.8 3.8 NW 4.9 NW 0.0 0.1
21:40 23.9 74.3 1014.8 3.1 NW 3.9 NW 0.0 0.1
21:45 23.9 74.3 1014.8 2.9 NW 4.6 NNW 0.0 0.1
21:50 23.9 74.3 1014.8 1.9 NNW 2.8 NW 0.0 0.1
21:55 23.8 74.0 1014.8 0.1 NNW 1.4 NNW 0.0 0.1
22:00 23.7 70.9 1014.8 0.0 ENE 1.8 ENE 0.0 0.1
Máxima 29.4 75.5 1018.4 15.7 SE 27.2 SE 0.0 844.0
Mínima 20 52.9 1014.7
Total 0.0